| time (UTC) | temp C | wind direction | speed KPH | gust KPH | rain 1hr cm | rain 24hr cm | rain mn cm | humidity % | barometer mb |
| 20260507095403 | 11 | 336 | 8.0 | 8.0 | 0.00 | 0.00 | 0.00 | 81 | 1026.1 |
| 20260507094901 | 11 | 335 | 4.8 | 8.0 | 0.00 | 0.00 | 0.00 | 81 | 1026.1 |
| 20260507094357 | 11 | 314 | 4.8 | 8.0 | 0.00 | 0.00 | 0.00 | 81 | 1026.1 |
| 20260507093854 | 11 | 322 | 3.2 | 8.0 | 0.00 | 0.00 | 0.00 | 81 | 1026.1 |
| 20260507093352 | 11 | 0 | 3.2 | 6.4 | 0.00 | 0.00 | 0.00 | 80 | 1026.2 |
| 20260507092850 | 11 | 348 | 1.6 | 11.3 | 0.00 | 0.00 | 0.00 | 81 | 1026.2 |
| 20260507092346 | 11 | 28 | 4.8 | 6.4 | 0.00 | 0.00 | 0.00 | 81 | 1026.5 |
| 20260507091843 | 11 | 270 | 1.6 | 4.8 | 0.00 | 0.00 | 0.00 | 81 | 1026.7 |
| 20260507091339 | 11 | 285 | 8.0 | 9.7 | 0.00 | 0.00 | 0.00 | 82 | 1026.5 |
| 20260507090835 | 11 | 345 | 4.8 | 12.9 | 0.00 | 0.00 | 0.00 | 82 | 1026.2 |
| 20260507090331 | 11 | 324 | 3.2 | 14.5 | 0.00 | 0.00 | 0.00 | 83 | 1026.1 |
| 20260507085828 | 11 | 257 | 1.6 | 14.5 | 0.00 | 0.00 | 0.00 | 84 | 1026.2 |
| 20260507085325 | 11 | 262 | 3.2 | 12.9 | 0.00 | 0.00 | 0.00 | 84 | 1026.2 |
| 20260507084823 | 11 | 84 | 1.6 | 8.0 | 0.00 | 0.00 | 0.00 | 84 | 1026.5 |
| 20260507084319 | 11 | 270 | 4.8 | 11.3 | 0.00 | 0.00 | 0.00 | 84 | 1026.2 |
| 20260507083816 | 11 | 29 | 0.0 | 4.8 | 0.00 | 0.00 | 0.00 | 84 | 1026.2 |
| 20260507083313 | 11 | 0 | 4.8 | 8.0 | 0.00 | 0.00 | 0.00 | 84 | 1026.1 |
| 20260507082809 | 11 | 339 | 4.8 | 9.7 | 0.00 | 0.00 | 0.00 | 84 | 1026.6 |
| 20260507082306 | 11 | 216 | 3.2 | 3.2 | 0.00 | 0.00 | 0.00 | 84 | 1026.3 |
| 20260507081802 | 11 | 354 | 0.0 | 6.4 | 0.00 | 0.00 | 0.00 | 84 | 1026.7 |
| 20260507081257 | 11 | 348 | 3.2 | 14.5 | 0.00 | 0.00 | 0.00 | 84 | 1026.7 |
| 20260507080755 | 11 | 22 | 3.2 | 4.8 | 0.00 | 0.00 | 0.00 | 84 | 1026.6 |
| 20260507080251 | 11 | 206 | 1.6 | 3.2 | 0.00 | 0.00 | 0.00 | 84 | 1026.6 |
| 20260507075746 | 11 | 297 | 6.4 | 8.0 | 0.00 | 0.00 | 0.00 | 84 | 1026.9 |
| 20260507075242 | 11 | 304 | 0.0 | 8.0 | 0.00 | 0.00 | 0.00 | 84 | 1026.8 |
| 20260507074738 | 11 | 300 | 1.6 | 6.4 | 0.00 | 0.00 | 0.00 | 84 | 1026.9 |
| 20260507074237 | 11 | 291 | 1.6 | 4.8 | 0.00 | 0.00 | 0.00 | 84 | 1026.8 |
| 20260507073733 | 11 | 216 | 0.0 | 4.8 | 0.00 | 0.00 | 0.00 | 84 | 1026.8 |
| 20260507073230 | 11 | 301 | 3.2 | 8.0 | 0.00 | 0.00 | 0.00 | 84 | 1026.9 |
| 20260507072728 | 11 | 26 | 4.8 | 4.8 | 0.00 | 0.00 | 0.00 | 84 | 1026.9 |
| 20260507072225 | 11 | 66 | 1.6 | 9.7 | 0.00 | 0.00 | 0.00 | 84 | 1026.9 |
| 20260507071723 | 12 | 76 | 4.8 | 4.8 | 0.00 | 0.00 | 0.00 | 84 | 1027.0 |
| 20260507071219 | 11 | 267 | 4.8 | 8.0 | 0.00 | 0.00 | 0.00 | 84 | 1026.9 |
| 20260507070716 | 11 | 65 | 3.2 | 6.4 | 0.00 | 0.00 | 0.00 | 84 | 1026.7 |
| 20260507070213 | 12 | 13 | 4.8 | 4.8 | 0.00 | 0.00 | 0.00 | 84 | 1026.7 |
| 20260507065709 | 12 | 15 | 0.0 | 8.0 | 0.00 | 0.00 | 0.00 | 84 | 1026.6 |
| 20260507065206 | 12 | 294 | 1.6 | 12.9 | 0.00 | 0.00 | 0.00 | 84 | 1026.6 |
| 20260507064703 | 12 | 2 | 6.4 | 8.0 | 0.00 | 0.00 | 0.00 | 83 | 1026.5 |
| 20260507064202 | 12 | 114 | 3.2 | 14.5 | 0.00 | 0.00 | 0.00 | 83 | 1026.0 |
| 20260507063700 | 12 | 352 | 9.7 | 16.1 | 0.00 | 0.00 | 0.00 | 83 | 1025.8 |
| 20260507063156 | 12 | 0 | 0.0 | 6.4 | 0.00 | 0.00 | 0.00 | 83 | 1025.7 |
| 20260507062653 | 12 | 0 | 3.2 | 12.9 | 0.00 | 0.00 | 0.00 | 83 | 1025.8 |
| 20260507062150 | 12 | 270 | 0.0 | 6.4 | 0.00 | 0.00 | 0.00 | 82 | 1025.8 |
| 20260507061648 | 12 | 240 | 0.0 | 4.8 | 0.00 | 0.00 | 0.00 | 82 | 1026.1 |
| 20260507061146 | 12 | 7 | 1.6 | 6.4 | 0.00 | 0.00 | 0.00 | 82 | 1026.2 |
| 20260507060644 | 12 | 262 | 1.6 | 6.4 | 0.00 | 0.00 | 0.00 | 82 | 1026.5 |
| 20260507060140 | 12 | 300 | 0.0 | 6.4 | 0.00 | 0.00 | 0.00 | 82 | 1026.6 |
| 20260507055635 | 12 | 307 | 4.8 | 11.3 | 0.00 | 0.00 | 0.00 | 82 | 1026.6 |
| 20260507055131 | 12 | 249 | 1.6 | 6.4 | 0.00 | 0.00 | 0.00 | 82 | 1026.5 |
| 20260507054627 | 12 | 270 | 3.2 | 8.0 | 0.00 | 0.00 | 0.00 | 82 | 1026.6 |
| 20260507054125 | 12 | 255 | 1.6 | 14.5 | 0.00 | 0.00 | 0.00 | 82 | 1026.5 |
| 20260507053623 | 12 | 255 | 1.6 | 8.0 | 0.00 | 0.00 | 0.00 | 82 | 1026.6 |
| 20260507053121 | 12 | 267 | 4.8 | 16.1 | 0.00 | 0.00 | 0.00 | 82 | 1026.2 |
| 20260507052619 | 12 | 309 | 4.8 | 9.7 | 0.00 | 0.00 | 0.00 | 83 | 1026.3 |
| 20260507052115 | 12 | 270 | 1.6 | 8.0 | 0.00 | 0.00 | 0.00 | 83 | 1026.7 |
| 20260507051613 | 12 | 5 | 4.8 | 4.8 | 0.00 | 0.00 | 0.00 | 83 | 1026.5 |
| 20260507051109 | 12 | 90 | 1.6 | 8.0 | 0.00 | 0.00 | 0.00 | 82 | 1026.7 |
| 20260507050606 | 12 | 221 | 0.0 | 4.8 | 0.00 | 0.00 | 0.00 | 82 | 1026.6 |
| 20260507045559 | 12 | 30 | 0.0 | 4.8 | 0.00 | 0.00 | 0.00 | 82 | 1026.8 |
| 20260507045056 | 12 | 352 | 0.0 | 14.5 | 0.00 | 0.00 | 0.00 | 81 | 1026.6 |
| 20260507044553 | 12 | 244 | 4.8 | 4.8 | 0.00 | 0.00 | 0.00 | 81 | 1026.8 |
| 20260507044050 | 12 | 7 | 3.2 | 8.0 | 0.00 | 0.00 | 0.00 | 81 | 1026.7 |
| 20260507043545 | 12 | 313 | 8.0 | 19.3 | 0.00 | 0.00 | 0.00 | 81 | 1026.8 |
| 20260507043043 | 12 | 23 | 0.0 | 6.4 | 0.00 | 0.00 | 0.00 | 81 | 1026.5 |
| 20260507042539 | 12 | 352 | 3.2 | 14.5 | 0.00 | 0.00 | 0.00 | 80 | 1026.6 |
| 20260507042034 | 12 | 310 | 4.8 | 24.1 | 0.00 | 0.00 | 0.00 | 80 | 1026.3 |
| 20260507041532 | 12 | 66 | 0.0 | 4.8 | 0.00 | 0.00 | 0.00 | 80 | 1026.3 |
| 20260507041029 | 13 | 317 | 6.4 | 17.7 | 0.00 | 0.00 | 0.00 | 79 | 1026.7 |
| 20260507040525 | 13 | 0 | 3.2 | 9.7 | 0.00 | 0.00 | 0.00 | 80 | 1026.3 |
| 20260507040021 | 13 | 23 | 4.8 | 9.7 | 0.00 | 0.00 | 0.00 | 80 | 1026.3 |
| 20260507035517 | 13 | 23 | 1.6 | 6.4 | 0.00 | 0.00 | 0.00 | 80 | 1026.5 |
| 20260507035014 | 13 | 55 | 4.8 | 8.0 | 0.00 | 0.00 | 0.00 | 80 | 1026.3 |
| 20260507034511 | 13 | 4 | 3.2 | 8.0 | 0.00 | 0.00 | 0.00 | 79 | 1026.0 |
| 20260507034009 | 13 | 272 | 12.9 | 12.9 | 0.00 | 0.00 | 0.00 | 79 | 1026.2 |
| 20260507033507 | 13 | 46 | 8.0 | 16.1 | 0.00 | 0.00 | 0.00 | 79 | 1026.2 |
| 20260507033004 | 13 | 270 | 0.0 | 14.5 | 0.00 | 0.00 | 0.00 | 79 | 1025.8 |
| 20260507032500 | 13 | 270 | 0.0 | 17.7 | 0.00 | 0.00 | 0.00 | 79 | 1025.8 |
| 20260507031956 | 13 | 38 | 9.7 | 19.3 | 0.00 | 0.00 | 0.00 | 79 | 1025.7 |
| 20260507031453 | 13 | 348 | 9.7 | 14.5 | 0.00 | 0.00 | 0.00 | 78 | 1025.6 |
| 20260507030950 | 13 | 297 | 8.0 | 22.5 | 0.00 | 0.00 | 0.00 | 78 | 1025.5 |
| 20260507030447 | 14 | 0 | 4.8 | 14.5 | 0.00 | 0.00 | 0.00 | 78 | 1025.5 |
| 20260507025944 | 14 | 352 | 9.7 | 17.7 | 0.00 | 0.00 | 0.00 | 78 | 1025.7 |
| 20260507025441 | 14 | 318 | 9.7 | 11.3 | 0.00 | 0.00 | 0.00 | 78 | 1025.5 |
| 20260507024939 | 14 | 285 | 0.0 | 14.5 | 0.00 | 0.00 | 0.00 | 78 | 1025.3 |
| 20260507024436 | 15 | 302 | 9.7 | 11.3 | 0.00 | 0.00 | 0.00 | 78 | 1025.4 |
| 20260507023932 | 15 | 311 | 6.4 | 11.3 | 0.00 | 0.00 | 0.00 | 78 | 1025.7 |
| 20260507023429 | 15 | 324 | 3.2 | 14.5 | 0.00 | 0.00 | 0.00 | 78 | 1025.7 |
| 20260507022926 | 15 | 27 | 4.8 | 9.7 | 0.00 | 0.00 | 0.00 | 78 | 1025.5 |
| 20260507022423 | 15 | 31 | 6.4 | 20.9 | 0.00 | 0.00 | 0.00 | 78 | 1025.8 |
| 20260507021919 | 15 | 38 | 12.9 | 14.5 | 0.00 | 0.00 | 0.00 | 78 | 1025.6 |
| 20260507021414 | 15 | 341 | 6.4 | 17.7 | 0.00 | 0.00 | 0.00 | 78 | 1025.8 |
| 20260507020912 | 15 | 357 | 8.0 | 11.3 | 0.00 | 0.00 | 0.00 | 77 | 1025.9 |
| 20260507020408 | 15 | 352 | 3.2 | 12.9 | 0.00 | 0.00 | 0.00 | 77 | 1025.6 |
| 20260507015905 | 15 | 9 | 4.8 | 8.0 | 0.00 | 0.00 | 0.00 | 77 | 1025.7 |
| 20260507015404 | 15 | 0 | 11.3 | 16.1 | 0.00 | 0.00 | 0.00 | 76 | 1025.8 |
| 20260507014900 | 16 | 2 | 9.7 | 14.5 | 0.00 | 0.00 | 0.00 | 76 | 1025.9 |
| 20260507014356 | 16 | 267 | 4.8 | 16.1 | 0.00 | 0.00 | 0.00 | 75 | 1026.0 |
| 20260507013853 | 16 | 336 | 4.8 | 12.9 | 0.00 | 0.00 | 0.00 | 75 | 1025.9 |
| 20260507013350 | 16 | 311 | 11.3 | 16.1 | 0.00 | 0.00 | 0.00 | 75 | 1026.0 |
| 20260507012848 | 16 | 225 | 3.2 | 11.3 | 0.00 | 0.00 | 0.00 | 75 | 1025.9 |
| 20260507012343 | 16 | 0 | 4.8 | 25.7 | 0.00 | 0.00 | 0.00 | 75 | 1026.1 |
| 20260507011840 | 16 | 287 | 4.8 | 14.5 | 0.00 | 0.00 | 0.00 | 74 | 1025.8 |
| 20260507011338 | 17 | 331 | 11.3 | 19.3 | 0.00 | 0.00 | 0.00 | 73 | 1025.9 |
| 20260507010832 | 17 | 7 | 3.2 | 6.4 | 0.00 | 0.00 | 0.00 | 72 | 1026.0 |
| 20260507010328 | 17 | 214 | 4.8 | 9.7 | 0.00 | 0.00 | 0.00 | 72 | 1026.0 |
| 20260507005825 | 17 | 216 | 3.2 | 8.0 | 0.00 | 0.00 | 0.00 | 72 | 1025.9 |
| 20260507005322 | 17 | 41 | 3.2 | 16.1 | 0.00 | 0.00 | 0.00 | 73 | 1026.0 |
| 20260507004818 | 17 | 26 | 1.6 | 17.7 | 0.00 | 0.00 | 0.00 | 72 | 1026.0 |
| 20260507004316 | 17 | 284 | 4.8 | 12.9 | 0.00 | 0.00 | 0.00 | 73 | 1025.8 |
| 20260507003813 | 17 | 161 | 3.2 | 4.8 | 0.00 | 0.00 | 0.00 | 71 | 1025.8 |
| 20260507003307 | 17 | 342 | 1.6 | 11.3 | 0.00 | 0.00 | 0.00 | 72 | 1025.9 |
| 20260507002758 | 18 | 34 | 8.0 | 12.9 | 0.00 | 0.00 | 0.00 | 72 | 1025.8 |
| 20260507002254 | 18 | 45 | 4.8 | 8.0 | 0.00 | 0.00 | 0.00 | 71 | 1026.0 |
| 20260507001751 | 18 | 294 | 4.8 | 8.0 | 0.00 | 0.00 | 0.00 | 69 | 1025.7 |
| 20260507001249 | 18 | 139 | 8.0 | 9.7 | 0.00 | 0.00 | 0.00 | 70 | 1025.7 |
| 20260507000744 | 17 | 355 | 1.6 | 16.1 | 0.00 | 0.00 | 0.00 | 71 | 1025.7 |
| 20260507000240 | 18 | 198 | 4.8 | 11.3 | 0.00 | 0.00 | 0.00 | 69 | 1025.7 |
| 20260506235737 | 18 | 214 | 4.8 | 8.0 | 0.00 | 0.00 | 0.00 | 68 | 1025.5 |
| 20260506235232 | 18 | 112 | 0.0 | 9.7 | 0.00 | 0.00 | 0.00 | 69 | 1025.7 |
| 20260506234730 | 18 | 19 | 0.0 | 9.7 | 0.00 | 0.00 | 0.00 | 70 | 1025.6 |
| 20260506234227 | 18 | 255 | 8.0 | 9.7 | 0.00 | 0.00 | 0.00 | 71 | 1025.8 |
| 20260506233725 | 18 | 343 | 4.8 | 8.0 | 0.00 | 0.00 | 0.00 | 70 | 1025.8 |
| 20260506233221 | 18 | 57 | 4.8 | 14.5 | 0.00 | 0.00 | 0.00 | 70 | 1025.6 |
| 20260506232718 | 18 | 350 | 3.2 | 8.0 | 0.00 | 0.00 | 0.00 | 70 | 1025.6 |
| 20260506232212 | 18 | 319 | 6.4 | 16.1 | 0.00 | 0.00 | 0.00 | 71 | 1025.5 |
| 20260506231710 | 18 | 39 | 6.4 | 9.7 | 0.00 | 0.00 | 0.00 | 72 | 1025.8 |
| 20260506231209 | 18 | 241 | 8.0 | 9.7 | 0.00 | 0.00 | 0.00 | 71 | 1026.0 |
| 20260506230704 | 18 | 49 | 3.2 | 9.7 | 0.00 | 0.00 | 0.00 | 70 | 1025.8 |
| 20260506230202 | 19 | 32 | 0.0 | 9.7 | 0.00 | 0.00 | 0.00 | 69 | 1025.8 |
| 20260506225658 | 18 | 235 | 12.9 | 16.1 | 0.00 | 0.00 | 0.00 | 70 | 1025.7 |
| 20260506225155 | 18 | 278 | 0.0 | 8.0 | 0.00 | 0.00 | 0.00 | 72 | 1025.9 |
| 20260506224651 | 18 | 8 | 0.0 | 9.7 | 0.00 | 0.00 | 0.00 | 72 | 1025.9 |
| 20260506224148 | 17 | 357 | 4.8 | 8.0 | 0.00 | 0.00 | 0.00 | 74 | 1025.9 |
| 20260506223645 | 18 | 348 | 3.2 | 8.0 | 0.00 | 0.00 | 0.00 | 72 | 1026.1 |
| 20260506223140 | 18 | 135 | 0.0 | 4.8 | 0.00 | 0.00 | 0.00 | 74 | 1025.9 |
| 20260506222638 | 18 | 208 | 4.8 | 4.8 | 0.00 | 0.00 | 0.00 | 73 | 1026.3 |
| 20260506222134 | 18 | 293 | 0.0 | 6.4 | 0.00 | 0.00 | 0.00 | 74 | 1026.2 |
| 20260506221632 | 17 | 240 | 0.0 | 4.8 | 0.00 | 0.00 | 0.00 | 74 | 1026.2 |
| 20260506221130 | 17 | 105 | 1.6 | 4.8 | 0.00 | 0.00 | 0.00 | 75 | 1026.2 |
| 20260506220626 | 17 | 66 | 4.8 | 9.7 | 0.00 | 0.00 | 0.00 | 76 | 1026.3 |
| 20260506220121 | 18 | 297 | 0.0 | 4.8 | 0.00 | 0.00 | 0.00 | 74 | 1026.5 |
| 20260506215618 | 17 | 90 | 3.2 | 6.4 | 0.00 | 0.00 | 0.00 | 75 | 1025.9 |
| 20260506215113 | 17 | 326 | 4.8 | 8.0 | 0.00 | 0.00 | 0.00 | 76 | 1025.9 |
| 20260506214611 | 17 | 252 | 4.8 | 4.8 | 0.00 | 0.00 | 0.00 | 76 | 1026.1 |
| 20260506214108 | 18 | 90 | 1.6 | 4.8 | 0.00 | 0.00 | 0.00 | 75 | 1026.1 |
| 20260506213606 | 18 | 276 | 1.6 | 4.8 | 0.00 | 0.00 | 0.00 | 73 | 1026.1 |
| 20260506213103 | 18 | 26 | 3.2 | 6.4 | 0.00 | 0.00 | 0.00 | 73 | 1026.0 |
| 20260506212600 | 17 | 106 | 3.2 | 6.4 | 0.00 | 0.00 | 0.00 | 75 | 1026.2 |
| 20260506212055 | 17 | 118 | 4.8 | 8.0 | 0.00 | 0.00 | 0.00 | 76 | 1026.0 |
| 20260506211551 | 17 | 230 | 4.8 | 4.8 | 0.00 | 0.00 | 0.00 | 76 | 1026.1 |
| 20260506211048 | 17 | 154 | 0.0 | 4.8 | 0.00 | 0.00 | 0.00 | 77 | 1026.2 |
| 20260506210544 | 16 | 266 | 3.2 | 9.7 | 0.00 | 0.00 | 0.00 | 78 | 1026.2 |
| 20260506210041 | 16 | 221 | 6.4 | 8.0 | 0.00 | 0.00 | 0.00 | 79 | 1026.5 |
| 20260506205538 | 17 | 303 | 8.0 | 9.7 | 0.00 | 0.00 | 0.00 | 75 | 1026.2 |
| 20260506205033 | 17 | 54 | 6.4 | 6.4 | 0.00 | 0.00 | 0.00 | 77 | 1026.1 |
| 20260506204532 | 16 | 324 | 4.8 | 9.7 | 0.00 | 0.00 | 0.00 | 79 | 1026.3 |
| 20260506204028 | 17 | 323 | 0.0 | 6.4 | 0.00 | 0.00 | 0.00 | 77 | 1026.7 |
| 20260506203527 | 17 | 56 | 0.0 | 4.8 | 0.00 | 0.00 | 0.00 | 79 | 1026.6 |
| 20260506203023 | 17 | 278 | 0.0 | 9.7 | 0.00 | 0.00 | 0.00 | 79 | 1026.3 |
| 20260506202520 | 16 | 327 | 3.2 | 4.8 | 0.00 | 0.00 | 0.00 | 79 | 1026.3 |
| 20260506202016 | 16 | 294 | 3.2 | 4.8 | 0.00 | 0.00 | 0.00 | 79 | 1026.7 |
| 20260506201514 | 16 | 150 | 6.4 | 8.0 | 0.00 | 0.00 | 0.00 | 79 | 1026.5 |
| 20260506201010 | 16 | 127 | 4.8 | 8.0 | 0.00 | 0.00 | 0.00 | 81 | 1026.5 |
| 20260506200507 | 16 | 132 | 3.2 | 8.0 | 0.00 | 0.00 | 0.00 | 80 | 1026.5 |
| 20260506200004 | 16 | 28 | 3.2 | 8.0 | 0.00 | 0.00 | 0.00 | 81 | 1026.9 |
| 20260506195501 | 16 | 82 | 4.8 | 6.4 | 0.00 | 0.00 | 0.00 | 80 | 1026.6 |
| 20260506194956 | 16 | 161 | 3.2 | 6.4 | 0.00 | 0.00 | 0.00 | 81 | 1026.6 |
| 20260506194454 | 15 | 79 | 6.4 | 6.4 | 0.00 | 0.00 | 0.00 | 83 | 1027.0 |
| 20260506193950 | 15 | 77 | 0.0 | 3.2 | 0.00 | 0.00 | 0.00 | 84 | 1027.1 |
| 20260506193448 | 15 | 15 | 0.0 | 4.8 | 0.00 | 0.00 | 0.00 | 85 | 1026.9 |
| 20260506192944 | 15 | 319 | 3.2 | 9.7 | 0.00 | 0.00 | 0.00 | 85 | 1027.3 |
| 20260506192442 | 15 | 0 | 0.0 | 4.8 | 0.00 | 0.00 | 0.00 | 83 | 1027.1 |
| 20260506191938 | 15 | 30 | 4.8 | 8.0 | 0.00 | 0.00 | 0.00 | 84 | 1027.0 |
| 20260506191435 | 15 | 294 | 0.0 | 9.7 | 0.00 | 0.00 | 0.00 | 84 | 1027.3 |
| 20260506190931 | 15 | 180 | 0.0 | 4.8 | 0.00 | 0.00 | 0.00 | 84 | 1027.1 |
| 20260506190428 | 15 | 237 | 3.2 | 6.4 | 0.00 | 0.00 | 0.00 | 84 | 1027.3 |
| 20260506185925 | 15 | 175 | 1.6 | 4.8 | 0.00 | 0.00 | 0.00 | 82 | 1027.4 |
| 20260506185422 | 16 | 106 | 1.6 | 4.8 | 0.00 | 0.00 | 0.00 | 81 | 1027.4 |
| 20260506184919 | 15 | 90 | 1.6 | 4.8 | 0.00 | 0.00 | 0.00 | 83 | 1027.3 |
| 20260506184416 | 15 | 90 | 1.6 | 3.2 | 0.00 | 0.00 | 0.00 | 83 | 1027.4 |
| 20260506183914 | 15 | 239 | 0.0 | 4.8 | 0.00 | 0.00 | 0.00 | 83 | 1027.2 |
| 20260506183409 | 15 | 151 | 1.6 | 3.2 | 0.00 | 0.00 | 0.00 | 82 | 1027.2 |
| 20260506182906 | 15 | 0 | 0.0 | 1.6 | 0.00 | 0.00 | 0.00 | 81 | 1026.8 |
| 20260506182403 | 15 | 66 | 0.0 | 3.2 | 0.00 | 0.00 | 0.00 | 82 | 1026.6 |
| 20260506181900 | 15 | 175 | 0.0 | 3.2 | 0.00 | 0.00 | 0.00 | 83 | 1026.5 |
| 20260506181358 | 15 | 265 | 0.0 | 3.2 | 0.00 | 0.00 | 0.00 | 83 | 1026.2 |
| 20260506180855 | 15 | 1 | 6.4 | 9.7 | 0.00 | 0.00 | 0.00 | 83 | 1026.2 |
| 20260506180351 | 15 | 45 | 6.4 | 8.0 | 0.00 | 0.00 | 0.00 | 82 | 1026.2 |
| 20260506175848 | 15 | 106 | 3.2 | 4.8 | 0.00 | 0.00 | 0.00 | 83 | 1026.3 |
| 20260506175344 | 15 | 353 | 1.6 | 8.0 | 0.00 | 0.00 | 0.00 | 84 | 1026.1 |
| 20260506174842 | 14 | 246 | 0.0 | 6.4 | 0.00 | 0.00 | 0.00 | 85 | 1026.2 |
| 20260506174339 | 14 | 39 | 4.8 | 6.4 | 0.00 | 0.00 | 0.00 | 85 | 1026.2 |
| 20260506173837 | 14 | 60 | 8.0 | 8.0 | 0.00 | 0.00 | 0.00 | 85 | 1026.2 |
| 20260506173333 | 14 | 240 | 0.0 | 4.8 | 0.00 | 0.00 | 0.00 | 85 | 1026.3 |
| 20260506172830 | 14 | 270 | 0.0 | 6.4 | 0.00 | 0.00 | 0.00 | 84 | 1026.2 |
| 20260506172327 | 14 | 337 | 0.0 | 4.8 | 0.00 | 0.00 | 0.00 | 85 | 1026.0 |
| 20260506171824 | 14 | 41 | 8.0 | 9.7 | 0.00 | 0.00 | 0.00 | 85 | 1026.2 |
| 20260506171321 | 13 | 270 | 0.0 | 4.8 | 0.00 | 0.00 | 0.00 | 86 | 1026.0 |
| 20260506170819 | 13 | 273 | 4.8 | 4.8 | 0.00 | 0.00 | 0.00 | 86 | 1025.8 |
| 20260506170315 | 13 | 255 | 3.2 | 6.4 | 0.00 | 0.00 | 0.00 | 86 | 1026.0 |
| 20260506165814 | 13 | 292 | 3.2 | 8.0 | 0.00 | 0.00 | 0.00 | 86 | 1026.0 |
| 20260506165311 | 13 | 270 | 0.0 | 4.8 | 0.00 | 0.00 | 0.00 | 86 | 1026.1 |
| 20260506164808 | 13 | 266 | 3.2 | 8.0 | 0.00 | 0.00 | 0.00 | 87 | 1026.0 |
| 20260506164304 | 13 | 199 | 6.4 | 8.0 | 0.00 | 0.00 | 0.00 | 86 | 1025.9 |
| 20260506163801 | 13 | 299 | 4.8 | 8.0 | 0.00 | 0.00 | 0.00 | 87 | 1025.8 |
| 20260506163256 | 13 | 282 | 0.0 | 9.7 | 0.00 | 0.00 | 0.00 | 87 | 1026.0 |
| 20260506162752 | 13 | 57 | 3.2 | 4.8 | 0.00 | 0.00 | 0.00 | 87 | 1025.9 |
| 20260506162250 | 13 | 294 | 0.0 | 9.7 | 0.00 | 0.00 | 0.00 | 88 | 1025.8 |
| 20260506161747 | 13 | 270 | 1.6 | 6.4 | 0.00 | 0.00 | 0.00 | 87 | 1025.8 |
| 20260506161244 | 13 | 188 | 3.2 | 4.8 | 0.00 | 0.00 | 0.00 | 87 | 1025.8 |
| 20260506160742 | 13 | 6 | 4.8 | 4.8 | 0.00 | 0.00 | 0.00 | 87 | 1025.7 |
| 20260506160238 | 13 | 5 | 0.0 | 4.8 | 0.00 | 0.00 | 0.00 | 87 | 1025.9 |
| 20260506155737 | 13 | 125 | 3.2 | 3.2 | 0.00 | 0.00 | 0.00 | 88 | 1025.4 |
| 20260506155233 | 13 | 292 | 0.0 | 4.8 | 0.00 | 0.00 | 0.00 | 87 | 1025.5 |
| 20260506153341 | 12 | 29 | 0.0 | 4.8 | 0.00 | 0.00 | 0.00 | 87 | 1025.2 |
| 20260506152838 | 12 | 71 | 1.6 | 8.0 | 0.00 | 0.00 | 0.00 | 88 | 1025.5 |
| 20260506152335 | 12 | 66 | 4.8 | 6.4 | 0.00 | 0.00 | 0.00 | 88 | 1025.4 |
| 20260506151833 | 12 | 23 | 0.0 | 4.8 | 0.00 | 0.00 | 0.00 | 88 | 1025.6 |
| 20260506151330 | 12 | 6 | 4.8 | 4.8 | 0.00 | 0.00 | 0.00 | 89 | 1025.6 |
| 20260506150827 | 12 | 210 | 3.2 | 8.0 | 0.00 | 0.00 | 0.00 | 89 | 1025.8 |
| 20260506150324 | 12 | 283 | 0.0 | 6.4 | 0.00 | 0.00 | 0.00 | 90 | 1025.6 |
| 20260506145820 | 12 | 285 | 0.0 | 9.7 | 0.00 | 0.00 | 0.00 | 90 | 1025.7 |
| 20260506145317 | 12 | 302 | 4.8 | 20.9 | 0.00 | 0.00 | 0.00 | 90 | 1025.7 |
| 20260506144815 | 12 | 306 | 1.6 | 6.4 | 0.00 | 0.00 | 0.00 | 90 | 1025.7 |
| 20260506144311 | 12 | 10 | 0.0 | 12.9 | 0.00 | 0.00 | 0.00 | 90 | 1025.4 |
| 20260506143810 | 12 | 331 | 6.4 | 8.0 | 0.00 | 0.00 | 0.00 | 90 | 1025.4 |
| 20260506143306 | 12 | 301 | 8.0 | 9.7 | 0.00 | 0.00 | 0.00 | 90 | 1025.3 |
| 20260506142804 | 12 | 187 | 1.6 | 4.8 | 0.00 | 0.00 | 0.00 | 91 | 1025.4 |
| 20260506142305 | 12 | 151 | 0.0 | 6.4 | 0.00 | 0.00 | 0.00 | 91 | 1025.4 |
| 20260506141800 | 12 | 261 | 0.0 | 8.0 | 0.00 | 0.00 | 0.00 | 91 | 1025.2 |
| 20260506141258 | 12 | 38 | 3.2 | 8.0 | 0.00 | 0.00 | 0.00 | 91 | 1024.9 |
| 20260506140755 | 12 | 0 | 1.6 | 4.8 | 0.00 | 0.00 | 0.00 | 91 | 1025.2 |
| 20260506140252 | 12 | 30 | 4.8 | 9.7 | 0.00 | 0.00 | 0.00 | 91 | 1025.0 |
| 20260506135749 | 12 | 42 | 4.8 | 6.4 | 0.00 | 0.00 | 0.00 | 92 | 1024.9 |
| 20260506135245 | 12 | 127 | 3.2 | 4.8 | 0.00 | 0.00 | 0.00 | 92 | 1024.8 |
| 20260506134742 | 12 | 287 | 3.2 | 11.3 | 0.00 | 0.00 | 0.00 | 92 | 1024.8 |
| 20260506134238 | 12 | 40 | 0.0 | 3.2 | 0.00 | 0.00 | 0.00 | 93 | 1024.9 |
| 20260506133736 | 11 | 27 | 6.4 | 8.0 | 0.00 | 0.00 | 0.00 | 93 | 1024.8 |
| 20260506133232 | 11 | 33 | 0.0 | 6.4 | 0.00 | 0.00 | 0.00 | 93 | 1024.7 |
| 20260506132729 | 11 | 63 | 3.2 | 6.4 | 0.00 | 0.00 | 0.00 | 93 | 1024.7 |
| 20260506132226 | 11 | 34 | 0.0 | 8.0 | 0.00 | 0.00 | 0.00 | 93 | 1024.7 |
| 20260506131724 | 12 | 246 | 3.2 | 4.8 | 0.00 | 0.00 | 0.00 | 93 | 1024.5 |
| 20260506131220 | 11 | 203 | 3.2 | 4.8 | 0.00 | 0.00 | 0.00 | 93 | 1024.5 |
| 20260506130717 | 11 | 206 | 0.0 | 4.8 | 0.00 | 0.00 | 0.00 | 93 | 1024.4 |
| 20260506130214 | 12 | 301 | 3.2 | 8.0 | 0.00 | 0.00 | 0.00 | 93 | 1024.1 |
| 20260506125712 | 12 | 325 | 0.0 | 4.8 | 0.00 | 0.00 | 0.00 | 93 | 1024.3 |
| 20260506125210 | 12 | 74 | 0.0 | 1.6 | 0.00 | 0.00 | 0.00 | 92 | 1024.2 |
| 20260506124708 | 12 | 23 | 0.0 | 4.8 | 0.00 | 0.00 | 0.00 | 92 | 1024.2 |
| 20260506124206 | 12 | 299 | 3.2 | 4.8 | 0.00 | 0.00 | 0.00 | 92 | 1024.0 |
| 20260506123702 | 12 | 279 | 0.0 | 3.2 | 0.00 | 0.00 | 0.00 | 92 | 1024.1 |
| 20260506123201 | 12 | 11 | 1.6 | 3.2 | 0.00 | 0.00 | 0.00 | 92 | 1024.3 |
| 20260506122658 | 12 | 23 | 1.6 | 11.3 | 0.00 | 0.00 | 0.00 | 92 | 1024.2 |
| 20260506122155 | 12 | 29 | 3.2 | 3.2 | 0.00 | 0.00 | 0.00 | 91 | 1024.3 |
| 20260506121653 | 12 | 14 | 0.0 | 4.8 | 0.00 | 0.00 | 0.00 | 91 | 1024.1 |
| 20260506121149 | 12 | 287 | 0.0 | 3.2 | 0.00 | 0.00 | 0.00 | 91 | 1024.1 |
| 20260506120647 | 12 | 81 | 0.0 | 3.2 | 0.00 | 0.00 | 0.00 | 91 | 1024.1 |
| 20260506120144 | 12 | 0 | 0.0 | 4.8 | 0.00 | 0.00 | 0.00 | 91 | 1024.1 |
| 20260506115642 | 12 | 41 | 3.2 | 4.8 | 0.00 | 0.00 | 0.00 | 91 | 1024.1 |
| 20260506115140 | 12 | 41 | 3.2 | 4.8 | 0.00 | 0.00 | 0.00 | 91 | 1023.9 |
| 20260506114637 | 12 | 19 | 6.4 | 8.0 | 0.00 | 0.00 | 0.00 | 91 | 1024.1 |
| 20260506114135 | 12 | 57 | 3.2 | 4.8 | 0.00 | 0.00 | 0.00 | 91 | 1023.8 |
| 20260506113634 | 12 | 345 | 0.0 | 6.4 | 0.00 | 0.00 | 0.00 | 91 | 1023.9 |
| 20260506113130 | 12 | 20 | 0.0 | 4.8 | 0.00 | 0.00 | 0.00 | 91 | 1023.9 |
| 20260506112626 | 12 | 61 | 3.2 | 3.2 | 0.00 | 0.00 | 0.00 | 91 | 1023.9 |
| 20260506112124 | 12 | 0 | 0.0 | 3.2 | 0.00 | 0.00 | 0.00 | 91 | 1023.7 |
| 20260506111622 | 12 | 23 | 0.0 | 3.2 | 0.00 | 0.00 | 0.00 | 91 | 1023.9 |
| 20260506111119 | 12 | 337 | 0.0 | 4.8 | 0.00 | 0.00 | 0.00 | 91 | 1023.7 |
| 20260506110616 | 12 | 59 | 3.2 | 3.2 | 0.00 | 0.00 | 0.00 | 91 | 1023.6 |
| 20260506110114 | 12 | 157 | 0.0 | 1.6 | 0.00 | 0.00 | 0.00 | 91 | 1023.4 |
| 20260506105610 | 12 | 352 | 0.0 | 3.2 | 0.00 | 0.00 | 0.00 | 91 | 1023.5 |
| 20260506105107 | 12 | 8 | 0.0 | 4.8 | 0.00 | 0.00 | 0.00 | 91 | 1023.5 |
| 20260506104606 | 12 | 54 | 0.0 | 1.6 | 0.00 | 0.00 | 0.00 | 91 | 1023.5 |
| 20260506104102 | 12 | 101 | 3.2 | 4.8 | 0.00 | 0.00 | 0.00 | 91 | 1023.3 |
| 20260506103600 | 12 | 276 | 1.6 | 3.2 | 0.00 | 0.00 | 0.00 | 91 | 1023.5 |
| 20260506103056 | 12 | 32 | 4.8 | 4.8 | 0.00 | 0.00 | 0.00 | 91 | 1023.5 |
| 20260506102555 | 12 | 270 | 0.0 | 6.4 | 0.00 | 0.00 | 0.00 | 90 | 1023.3 |
| 20260506102052 | 12 | 172 | 0.0 | 3.2 | 0.00 | 0.00 | 0.00 | 91 | 1023.2 |
| 20260506101548 | 12 | 331 | 3.2 | 4.8 | 0.00 | 0.00 | 0.00 | 90 | 1023.2 |
| 20260506101045 | 12 | 356 | 3.2 | 4.8 | 0.00 | 0.00 | 0.00 | 90 | 1023.2 |
| 20260506100544 | 12 | 0 | 0.0 | 4.8 | 0.00 | 0.00 | 0.00 | 90 | 1023.2 |
| 20260506100041 | 12 | 311 | 0.0 | 4.8 | 0.00 | 0.00 | 0.00 | 90 | 1023.0 |